sensor_id;sensor_type;location;lat;lon;timestamp;P1;durP1;ratioP1;P2;durP2;ratioP2
7531;SDS011;3807;49.030;8.714;2022-08-18T00:01:01;5.05;;;4.43;;
7531;SDS011;3807;49.030;8.714;2022-08-18T00:03:27;5.93;;;4.65;;
7531;SDS011;3807;49.030;8.714;2022-08-18T00:05:54;5.07;;;4.57;;
7531;SDS011;3807;49.030;8.714;2022-08-18T00:08:20;4.82;;;4.07;;
7531;SDS011;3807;49.030;8.714;2022-08-18T00:10:45;4.85;;;4.05;;
7531;SDS011;3807;49.030;8.714;2022-08-18T00:13:10;5.05;;;4.43;;
7531;SDS011;3807;49.030;8.714;2022-08-18T00:15:36;6.57;;;4.35;;
7531;SDS011;3807;49.030;8.714;2022-08-18T00:18:01;5.00;;;3.95;;
7531;SDS011;3807;49.030;8.714;2022-08-18T00:20:27;7.32;;;4.70;;
7531;SDS011;3807;49.030;8.714;2022-08-18T00:22:52;7.12;;;4.85;;
7531;SDS011;3807;49.030;8.714;2022-08-18T00:25:20;5.55;;;4.47;;
7531;SDS011;3807;49.030;8.714;2022-08-18T00:27:46;6.97;;;4.97;;
7531;SDS011;3807;49.030;8.714;2022-08-18T00:30:15;4.68;;;4.28;;
7531;SDS011;3807;49.030;8.714;2022-08-18T00:32:46;5.35;;;4.50;;
7531;SDS011;3807;49.030;8.714;2022-08-18T00:35:21;6.68;;;4.25;;
7531;SDS011;3807;49.030;8.714;2022-08-18T00:37:56;6.12;;;4.20;;
7531;SDS011;3807;49.030;8.714;2022-08-18T00:40:30;5.12;;;4.35;;
7531;SDS011;3807;49.030;8.714;2022-08-18T00:43:00;6.03;;;4.30;;
7531;SDS011;3807;49.030;8.714;2022-08-18T00:45:33;6.72;;;4.40;;
7531;SDS011;3807;49.030;8.714;2022-08-18T00:48:01;4.50;;;4.05;;
7531;SDS011;3807;49.030;8.714;2022-08-18T00:50:47;5.00;;;4.20;;
7531;SDS011;3807;49.030;8.714;2022-08-18T00:55:54;6.15;;;4.53;;
7531;SDS011;3807;49.030;8.714;2022-08-18T00:58:41;4.90;;;4.50;;
7531;SDS011;3807;49.030;8.714;2022-08-18T01:01:11;4.53;;;4.10;;
7531;SDS011;3807;49.030;8.714;2022-08-18T01:03:38;6.53;;;4.55;;
7531;SDS011;3807;49.030;8.714;2022-08-18T01:06:15;4.50;;;4.05;;
7531;SDS011;3807;49.030;8.714;2022-08-18T01:08:47;4.80;;;4.40;;
7531;SDS011;3807;49.030;8.714;2022-08-18T01:11:12;6.12;;;4.60;;
7531;SDS011;3807;49.030;8.714;2022-08-18T01:13:38;5.15;;;4.35;;
7531;SDS011;3807;49.030;8.714;2022-08-18T01:16:05;5.28;;;4.25;;
7531;SDS011;3807;49.030;8.714;2022-08-18T01:18:50;6.00;;;4.43;;
7531;SDS011;3807;49.030;8.714;2022-08-18T01:21:35;5.37;;;4.45;;
7531;SDS011;3807;49.030;8.714;2022-08-18T01:24:14;4.32;;;3.92;;
7531;SDS011;3807;49.030;8.714;2022-08-18T01:26:41;5.85;;;4.32;;
7531;SDS011;3807;49.030;8.714;2022-08-18T01:29:13;5.68;;;4.53;;
7531;SDS011;3807;49.030;8.714;2022-08-18T01:31:41;6.90;;;4.32;;
7531;SDS011;3807;49.030;8.714;2022-08-18T01:34:11;4.43;;;4.03;;
7531;SDS011;3807;49.030;8.714;2022-08-18T01:36:38;6.97;;;4.50;;
7531;SDS011;3807;49.030;8.714;2022-08-18T01:39:06;5.25;;;4.50;;
7531;SDS011;3807;49.030;8.714;2022-08-18T01:41:33;6.60;;;4.10;;
7531;SDS011;3807;49.030;8.714;2022-08-18T01:43:59;5.55;;;4.28;;
7531;SDS011;3807;49.030;8.714;2022-08-18T01:46:26;6.00;;;4.90;;
7531;SDS011;3807;49.030;8.714;2022-08-18T01:48:54;4.87;;;3.72;;
7531;SDS011;3807;49.030;8.714;2022-08-18T01:51:20;3.72;;;3.42;;
7531;SDS011;3807;49.030;8.714;2022-08-18T01:53:46;5.97;;;4.32;;
7531;SDS011;3807;49.030;8.714;2022-08-18T01:56:12;6.82;;;4.30;;
7531;SDS011;3807;49.030;8.714;2022-08-18T01:58:42;5.82;;;3.80;;
7531;SDS011;3807;49.030;8.714;2022-08-18T02:01:08;5.15;;;3.78;;
7531;SDS011;3807;49.030;8.714;2022-08-18T02:03:37;5.03;;;4.18;;
7531;SDS011;3807;49.030;8.714;2022-08-18T02:06:07;5.28;;;3.92;;
7531;SDS011;3807;49.030;8.714;2022-08-18T02:08:35;5.37;;;4.37;;
7531;SDS011;3807;49.030;8.714;2022-08-18T02:11:02;4.50;;;3.90;;
7531;SDS011;3807;49.030;8.714;2022-08-18T02:13:28;5.78;;;4.25;;
7531;SDS011;3807;49.030;8.714;2022-08-18T02:15:54;4.37;;;3.97;;
7531;SDS011;3807;49.030;8.714;2022-08-18T02:18:21;4.12;;;3.62;;
7531;SDS011;3807;49.030;8.714;2022-08-18T02:20:48;6.75;;;4.30;;
7531;SDS011;3807;49.030;8.714;2022-08-18T02:23:14;5.25;;;4.37;;
7531;SDS011;3807;49.030;8.714;2022-08-18T02:25:41;5.57;;;4.37;;
7531;SDS011;3807;49.030;8.714;2022-08-18T02:28:07;5.57;;;3.95;;
7531;SDS011;3807;49.030;8.714;2022-08-18T02:30:32;4.25;;;3.80;;
7531;SDS011;3807;49.030;8.714;2022-08-18T02:32:59;4.57;;;3.80;;
7531;SDS011;3807;49.030;8.714;2022-08-18T02:35:25;4.10;;;3.70;;
7531;SDS011;3807;49.030;8.714;2022-08-18T02:37:51;5.18;;;4.20;;
7531;SDS011;3807;49.030;8.714;2022-08-18T02:40:16;4.15;;;3.55;;
7531;SDS011;3807;49.030;8.714;2022-08-18T02:42:43;4.47;;;3.97;;
7531;SDS011;3807;49.030;8.714;2022-08-18T02:45:10;7.25;;;4.30;;
7531;SDS011;3807;49.030;8.714;2022-08-18T02:47:36;8.35;;;4.28;;
7531;SDS011;3807;49.030;8.714;2022-08-18T02:50:02;5.07;;;4.22;;
7531;SDS011;3807;49.030;8.714;2022-08-18T02:52:28;7.85;;;4.93;;
7531;SDS011;3807;49.030;8.714;2022-08-18T02:54:56;5.55;;;4.20;;
7531;SDS011;3807;49.030;8.714;2022-08-18T02:57:22;6.05;;;4.85;;
7531;SDS011;3807;49.030;8.714;2022-08-18T02:59:48;6.68;;;4.72;;
7531;SDS011;3807;49.030;8.714;2022-08-18T03:02:13;4.85;;;4.35;;
7531;SDS011;3807;49.030;8.714;2022-08-18T03:04:38;7.80;;;4.70;;
7531;SDS011;3807;49.030;8.714;2022-08-18T03:07:05;5.32;;;4.70;;
7531;SDS011;3807;49.030;8.714;2022-08-18T03:09:31;7.15;;;4.30;;
7531;SDS011;3807;49.030;8.714;2022-08-18T03:11:57;5.95;;;4.20;;
7531;SDS011;3807;49.030;8.714;2022-08-18T03:14:23;7.43;;;5.00;;
7531;SDS011;3807;49.030;8.714;2022-08-18T03:16:49;5.07;;;4.57;;
7531;SDS011;3807;49.030;8.714;2022-08-18T03:19:15;7.97;;;4.62;;
7531;SDS011;3807;49.030;8.714;2022-08-18T03:21:41;6.60;;;4.30;;
7531;SDS011;3807;49.030;8.714;2022-08-18T03:24:08;4.82;;;4.35;;
7531;SDS011;3807;49.030;8.714;2022-08-18T03:26:35;4.65;;;4.22;;
7531;SDS011;3807;49.030;8.714;2022-08-18T03:29:07;5.82;;;4.50;;
7531;SDS011;3807;49.030;8.714;2022-08-18T03:31:33;5.60;;;4.55;;
7531;SDS011;3807;49.030;8.714;2022-08-18T03:34:02;4.97;;;4.43;;
7531;SDS011;3807;49.030;8.714;2022-08-18T03:36:29;6.15;;;4.50;;
7531;SDS011;3807;49.030;8.714;2022-08-18T03:38:58;4.57;;;3.85;;
7531;SDS011;3807;49.030;8.714;2022-08-18T03:41:26;7.25;;;5.20;;
7531;SDS011;3807;49.030;8.714;2022-08-18T03:43:52;6.12;;;4.78;;
7531;SDS011;3807;49.030;8.714;2022-08-18T03:46:18;5.85;;;5.07;;
7531;SDS011;3807;49.030;8.714;2022-08-18T03:48:46;6.37;;;5.18;;
7531;SDS011;3807;49.030;8.714;2022-08-18T03:51:14;6.35;;;4.75;;
7531;SDS011;3807;49.030;8.714;2022-08-18T03:53:44;6.82;;;5.03;;
7531;SDS011;3807;49.030;8.714;2022-08-18T03:56:13;5.35;;;4.40;;
7531;SDS011;3807;49.030;8.714;2022-08-18T03:58:42;5.62;;;4.45;;
7531;SDS011;3807;49.030;8.714;2022-08-18T04:01:12;5.47;;;4.40;;
7531;SDS011;3807;49.030;8.714;2022-08-18T04:03:42;5.03;;;4.43;;
7531;SDS011;3807;49.030;8.714;2022-08-18T04:06:15;5.35;;;4.68;;
7531;SDS011;3807;49.030;8.714;2022-08-18T04:08:42;5.95;;;4.45;;
7531;SDS011;3807;49.030;8.714;2022-08-18T04:11:08;5.68;;;4.85;;
7531;SDS011;3807;49.030;8.714;2022-08-18T04:13:34;6.25;;;5.00;;
7531;SDS011;3807;49.030;8.714;2022-08-18T04:16:01;6.07;;;4.80;;
7531;SDS011;3807;49.030;8.714;2022-08-18T04:18:27;4.85;;;4.35;;
7531;SDS011;3807;49.030;8.714;2022-08-18T04:20:52;5.55;;;4.70;;
7531;SDS011;3807;49.030;8.714;2022-08-18T04:23:18;7.22;;;4.93;;
7531;SDS011;3807;49.030;8.714;2022-08-18T04:25:45;5.80;;;4.53;;
7531;SDS011;3807;49.030;8.714;2022-08-18T04:28:10;5.20;;;4.70;;
7531;SDS011;3807;49.030;8.714;2022-08-18T04:30:35;4.85;;;4.32;;
7531;SDS011;3807;49.030;8.714;2022-08-18T04:33:01;5.75;;;4.70;;
7531;SDS011;3807;49.030;8.714;2022-08-18T04:35:26;5.78;;;4.68;;
7531;SDS011;3807;49.030;8.714;2022-08-18T04:37:53;6.28;;;4.28;;
7531;SDS011;3807;49.030;8.714;2022-08-18T04:40:18;5.40;;;4.87;;
7531;SDS011;3807;49.030;8.714;2022-08-18T04:42:44;8.15;;;5.05;;
7531;SDS011;3807;49.030;8.714;2022-08-18T04:45:09;5.30;;;4.80;;
7531;SDS011;3807;49.030;8.714;2022-08-18T04:47:35;5.82;;;4.80;;
7531;SDS011;3807;49.030;8.714;2022-08-18T04:50:05;7.32;;;5.00;;
7531;SDS011;3807;49.030;8.714;2022-08-18T04:52:31;6.62;;;4.75;;
7531;SDS011;3807;49.030;8.714;2022-08-18T04:55:15;6.55;;;4.55;;
7531;SDS011;3807;49.030;8.714;2022-08-18T04:57:41;5.93;;;4.50;;
7531;SDS011;3807;49.030;8.714;2022-08-18T05:00:06;8.10;;;4.32;;
7531;SDS011;3807;49.030;8.714;2022-08-18T05:02:35;6.65;;;5.00;;
7531;SDS011;3807;49.030;8.714;2022-08-18T05:05:02;5.10;;;4.60;;
7531;SDS011;3807;49.030;8.714;2022-08-18T05:07:28;5.28;;;4.62;;
7531;SDS011;3807;49.030;8.714;2022-08-18T05:09:54;4.82;;;4.32;;
7531;SDS011;3807;49.030;8.714;2022-08-18T05:12:19;6.03;;;4.90;;
7531;SDS011;3807;49.030;8.714;2022-08-18T05:14:45;7.93;;;4.43;;
7531;SDS011;3807;49.030;8.714;2022-08-18T05:17:12;5.95;;;5.20;;
7531;SDS011;3807;49.030;8.714;2022-08-18T05:19:39;6.25;;;5.20;;
7531;SDS011;3807;49.030;8.714;2022-08-18T05:22:08;5.55;;;4.80;;
7531;SDS011;3807;49.030;8.714;2022-08-18T05:24:34;10.02;;;5.30;;
7531;SDS011;3807;49.030;8.714;2022-08-18T05:27:00;5.20;;;4.50;;
7531;SDS011;3807;49.030;8.714;2022-08-18T05:29:27;6.87;;;5.35;;
7531;SDS011;3807;49.030;8.714;2022-08-18T05:31:59;8.27;;;5.62;;
7531;SDS011;3807;49.030;8.714;2022-08-18T05:34:25;6.32;;;4.72;;
7531;SDS011;3807;49.030;8.714;2022-08-18T05:40:01;5.22;;;4.72;;
7531;SDS011;3807;49.030;8.714;2022-08-18T05:42:22;7.30;;;4.82;;
7531;SDS011;3807;49.030;8.714;2022-08-18T05:44:51;5.97;;;4.50;;
7531;SDS011;3807;49.030;8.714;2022-08-18T05:49:45;6.75;;;5.07;;
7531;SDS011;3807;49.030;8.714;2022-08-18T05:52:17;6.40;;;5.37;;
7531;SDS011;3807;49.030;8.714;2022-08-18T05:54:48;6.32;;;5.12;;
7531;SDS011;3807;49.030;8.714;2022-08-18T05:57:59;6.15;;;5.15;;
7531;SDS011;3807;49.030;8.714;2022-08-18T06:00:29;5.62;;;5.00;;
7531;SDS011;3807;49.030;8.714;2022-08-18T06:03:00;7.70;;;5.35;;
7531;SDS011;3807;49.030;8.714;2022-08-18T06:05:37;5.85;;;5.22;;
7531;SDS011;3807;49.030;8.714;2022-08-18T06:08:12;6.82;;;5.68;;
7531;SDS011;3807;49.030;8.714;2022-08-18T06:10:40;7.57;;;5.20;;
7531;SDS011;3807;49.030;8.714;2022-08-18T06:13:10;6.15;;;4.75;;
7531;SDS011;3807;49.030;8.714;2022-08-18T06:21:24;7.50;;;4.57;;
7531;SDS011;3807;49.030;8.714;2022-08-18T06:26:39;8.15;;;4.60;;
7531;SDS011;3807;49.030;8.714;2022-08-18T06:32:18;5.95;;;5.03;;
7531;SDS011;3807;49.030;8.714;2022-08-18T06:40:20;10.95;;;4.65;;
7531;SDS011;3807;49.030;8.714;2022-08-18T06:42:45;6.55;;;4.82;;
7531;SDS011;3807;49.030;8.714;2022-08-18T06:45:12;4.65;;;4.12;;
7531;SDS011;3807;49.030;8.714;2022-08-18T06:47:46;5.22;;;4.40;;
7531;SDS011;3807;49.030;8.714;2022-08-18T06:50:20;5.62;;;4.28;;
7531;SDS011;3807;49.030;8.714;2022-08-18T06:55:29;5.93;;;4.22;;
7531;SDS011;3807;49.030;8.714;2022-08-18T06:58:01;7.32;;;4.28;;
7531;SDS011;3807;49.030;8.714;2022-08-18T07:00:32;6.40;;;4.53;;
7531;SDS011;3807;49.030;8.714;2022-08-18T07:05:32;6.53;;;4.65;;
7531;SDS011;3807;49.030;8.714;2022-08-18T07:12:49;7.47;;;4.35;;
7531;SDS011;3807;49.030;8.714;2022-08-18T07:15:17;5.25;;;4.10;;
7531;SDS011;3807;49.030;8.714;2022-08-18T07:17:48;8.73;;;4.05;;
7531;SDS011;3807;49.030;8.714;2022-08-18T07:20:21;4.85;;;4.35;;
7531;SDS011;3807;49.030;8.714;2022-08-18T07:25:21;6.40;;;4.18;;
7531;SDS011;3807;49.030;8.714;2022-08-18T07:27:49;4.80;;;4.18;;
7531;SDS011;3807;49.030;8.714;2022-08-18T07:35:36;7.22;;;4.20;;
7531;SDS011;3807;49.030;8.714;2022-08-18T07:38:18;5.57;;;4.30;;
7531;SDS011;3807;49.030;8.714;2022-08-18T07:46:01;6.10;;;4.28;;
7531;SDS011;3807;49.030;8.714;2022-08-18T07:48:37;7.20;;;5.22;;
7531;SDS011;3807;49.030;8.714;2022-08-18T07:51:05;5.90;;;5.30;;
7531;SDS011;3807;49.030;8.714;2022-08-18T07:56:41;6.32;;;4.82;;
7531;SDS011;3807;49.030;8.714;2022-08-18T07:59:15;6.47;;;4.97;;
7531;SDS011;3807;49.030;8.714;2022-08-18T08:01:59;8.32;;;4.70;;
7531;SDS011;3807;49.030;8.714;2022-08-18T08:07:31;6.18;;;4.87;;
7531;SDS011;3807;49.030;8.714;2022-08-18T08:15:52;7.32;;;4.70;;
7531;SDS011;3807;49.030;8.714;2022-08-18T08:21:24;5.62;;;4.72;;
7531;SDS011;3807;49.030;8.714;2022-08-18T08:37:08;4.93;;;4.43;;
7531;SDS011;3807;49.030;8.714;2022-08-18T08:39:49;6.03;;;4.82;;
7531;SDS011;3807;49.030;8.714;2022-08-18T08:48:08;8.23;;;4.57;;
7531;SDS011;3807;49.030;8.714;2022-08-18T08:50:46;6.70;;;4.65;;
7531;SDS011;3807;49.030;8.714;2022-08-18T08:55:59;7.70;;;5.18;;
7531;SDS011;3807;49.030;8.714;2022-08-18T08:58:28;8.93;;;4.82;;
7531;SDS011;3807;49.030;8.714;2022-08-18T09:00:55;8.25;;;5.43;;
7531;SDS011;3807;49.030;8.714;2022-08-18T09:20:27;10.43;;;5.50;;
7531;SDS011;3807;49.030;8.714;2022-08-18T09:28:19;7.12;;;4.78;;
7531;SDS011;3807;49.030;8.714;2022-08-18T09:38:56;8.20;;;5.55;;
7531;SDS011;3807;49.030;8.714;2022-08-18T09:41:50;7.65;;;5.75;;
7531;SDS011;3807;49.030;8.714;2022-08-18T09:49:54;10.43;;;7.82;;
7531;SDS011;3807;49.030;8.714;2022-08-18T09:54:47;12.05;;;6.65;;
7531;SDS011;3807;49.030;8.714;2022-08-18T10:02:13;10.57;;;7.32;;
7531;SDS011;3807;49.030;8.714;2022-08-18T10:10:29;11.00;;;7.72;;
7531;SDS011;3807;49.030;8.714;2022-08-18T10:13:12;10.48;;;8.18;;
7531;SDS011;3807;49.030;8.714;2022-08-18T10:31:20;11.30;;;8.88;;
7531;SDS011;3807;49.030;8.714;2022-08-18T10:33:59;8.35;;;7.53;;
7531;SDS011;3807;49.030;8.714;2022-08-18T10:36:44;9.30;;;7.25;;
7531;SDS011;3807;49.030;8.714;2022-08-18T10:42:12;9.82;;;8.25;;
7531;SDS011;3807;49.030;8.714;2022-08-18T10:44:44;12.30;;;8.52;;
7531;SDS011;3807;49.030;8.714;2022-08-18T10:47:20;9.80;;;8.80;;
7531;SDS011;3807;49.030;8.714;2022-08-18T10:49:49;9.30;;;7.53;;
7531;SDS011;3807;49.030;8.714;2022-08-18T11:06:21;9.32;;;8.07;;
7531;SDS011;3807;49.030;8.714;2022-08-18T11:08:53;9.45;;;8.15;;
7531;SDS011;3807;49.030;8.714;2022-08-18T11:11:22;7.57;;;6.55;;
7531;SDS011;3807;49.030;8.714;2022-08-18T11:19:13;7.10;;;6.40;;
7531;SDS011;3807;49.030;8.714;2022-08-18T11:21:41;8.25;;;6.60;;
7531;SDS011;3807;49.030;8.714;2022-08-18T11:24:25;7.35;;;6.65;;
7531;SDS011;3807;49.030;8.714;2022-08-18T11:26:58;7.07;;;6.25;;
7531;SDS011;3807;49.030;8.714;2022-08-18T11:29:29;8.05;;;7.25;;
7531;SDS011;3807;49.030;8.714;2022-08-18T11:31:57;8.50;;;7.60;;
7531;SDS011;3807;49.030;8.714;2022-08-18T11:34:47;9.75;;;8.02;;
7531;SDS011;3807;49.030;8.714;2022-08-18T11:39:48;12.82;;;8.60;;
7531;SDS011;3807;49.030;8.714;2022-08-18T11:42:16;9.68;;;8.40;;
7531;SDS011;3807;49.030;8.714;2022-08-18T11:44:44;10.27;;;8.05;;
7531;SDS011;3807;49.030;8.714;2022-08-18T11:47:14;8.57;;;7.68;;
7531;SDS011;3807;49.030;8.714;2022-08-18T11:49:52;9.95;;;8.65;;
7531;SDS011;3807;49.030;8.714;2022-08-18T11:52:22;12.05;;;9.85;;
7531;SDS011;3807;49.030;8.714;2022-08-18T11:54:57;9.80;;;8.35;;
7531;SDS011;3807;49.030;8.714;2022-08-18T11:57:40;9.43;;;8.50;;
7531;SDS011;3807;49.030;8.714;2022-08-18T12:05:56;8.80;;;7.90;;
7531;SDS011;3807;49.030;8.714;2022-08-18T12:08:37;10.05;;;8.85;;
7531;SDS011;3807;49.030;8.714;2022-08-18T12:13:44;14.25;;;8.95;;
7531;SDS011;3807;49.030;8.714;2022-08-18T12:18:54;11.30;;;8.05;;
7531;SDS011;3807;49.030;8.714;2022-08-18T12:21:19;11.35;;;8.40;;
7531;SDS011;3807;49.030;8.714;2022-08-18T12:23:45;11.57;;;8.30;;
7531;SDS011;3807;49.030;8.714;2022-08-18T12:26:12;9.60;;;8.43;;
7531;SDS011;3807;49.030;8.714;2022-08-18T12:28:37;9.30;;;8.00;;
7531;SDS011;3807;49.030;8.714;2022-08-18T12:31:03;8.93;;;7.68;;
7531;SDS011;3807;49.030;8.714;2022-08-18T12:33:29;9.88;;;7.30;;
7531;SDS011;3807;49.030;8.714;2022-08-18T12:35:55;9.80;;;7.32;;
7531;SDS011;3807;49.030;8.714;2022-08-18T12:38:21;10.35;;;8.02;;
7531;SDS011;3807;49.030;8.714;2022-08-18T12:40:47;10.00;;;7.53;;
7531;SDS011;3807;49.030;8.714;2022-08-18T12:43:12;10.43;;;8.90;;
7531;SDS011;3807;49.030;8.714;2022-08-18T12:45:38;8.85;;;7.35;;
7531;SDS011;3807;49.030;8.714;2022-08-18T12:48:04;8.45;;;6.18;;
7531;SDS011;3807;49.030;8.714;2022-08-18T12:50:30;10.52;;;7.40;;
7531;SDS011;3807;49.030;8.714;2022-08-18T12:52:56;9.57;;;8.05;;
7531;SDS011;3807;49.030;8.714;2022-08-18T12:55:21;8.70;;;7.50;;
7531;SDS011;3807;49.030;8.714;2022-08-18T12:57:47;8.40;;;7.15;;
7531;SDS011;3807;49.030;8.714;2022-08-18T13:00:12;11.77;;;7.40;;
7531;SDS011;3807;49.030;8.714;2022-08-18T13:02:38;7.78;;;6.80;;
7531;SDS011;3807;49.030;8.714;2022-08-18T13:05:04;7.15;;;6.43;;
7531;SDS011;3807;49.030;8.714;2022-08-18T13:07:30;9.43;;;7.53;;
7531;SDS011;3807;49.030;8.714;2022-08-18T13:09:56;7.32;;;6.53;;
7531;SDS011;3807;49.030;8.714;2022-08-18T13:12:21;7.90;;;6.50;;
7531;SDS011;3807;49.030;8.714;2022-08-18T13:14:50;6.75;;;6.12;;
7531;SDS011;3807;49.030;8.714;2022-08-18T13:17:18;7.85;;;6.65;;
7531;SDS011;3807;49.030;8.714;2022-08-18T13:19:44;7.80;;;6.35;;
7531;SDS011;3807;49.030;8.714;2022-08-18T13:22:10;6.45;;;5.85;;
7531;SDS011;3807;49.030;8.714;2022-08-18T13:24:36;6.95;;;5.72;;
7531;SDS011;3807;49.030;8.714;2022-08-18T13:27:02;7.75;;;5.80;;
7531;SDS011;3807;49.030;8.714;2022-08-18T13:29:28;6.20;;;5.60;;
7531;SDS011;3807;49.030;8.714;2022-08-18T13:31:53;6.07;;;5.37;;
7531;SDS011;3807;49.030;8.714;2022-08-18T13:34:26;7.18;;;6.00;;
7531;SDS011;3807;49.030;8.714;2022-08-18T13:36:52;6.10;;;5.50;;
7531;SDS011;3807;49.030;8.714;2022-08-18T13:39:19;7.00;;;5.78;;
7531;SDS011;3807;49.030;8.714;2022-08-18T13:41:46;6.15;;;5.55;;
7531;SDS011;3807;49.030;8.714;2022-08-18T13:44:13;6.20;;;5.60;;
7531;SDS011;3807;49.030;8.714;2022-08-18T13:46:42;6.35;;;5.70;;
7531;SDS011;3807;49.030;8.714;2022-08-18T13:49:17;6.40;;;5.80;;
7531;SDS011;3807;49.030;8.714;2022-08-18T13:51:45;6.43;;;5.80;;
7531;SDS011;3807;49.030;8.714;2022-08-18T13:54:21;8.15;;;5.50;;
7531;SDS011;3807;49.030;8.714;2022-08-18T13:56:49;6.90;;;5.90;;
7531;SDS011;3807;49.030;8.714;2022-08-18T13:59:15;5.93;;;5.40;;
7531;SDS011;3807;49.030;8.714;2022-08-18T14:01:41;5.43;;;4.93;;
7531;SDS011;3807;49.030;8.714;2022-08-18T14:04:08;5.97;;;5.37;;
7531;SDS011;3807;49.030;8.714;2022-08-18T14:06:36;6.85;;;5.15;;
7531;SDS011;3807;49.030;8.714;2022-08-18T14:09:01;5.87;;;5.37;;
7531;SDS011;3807;49.030;8.714;2022-08-18T14:11:27;6.93;;;5.50;;
7531;SDS011;3807;49.030;8.714;2022-08-18T14:13:54;9.10;;;5.75;;
7531;SDS011;3807;49.030;8.714;2022-08-18T14:16:20;7.65;;;5.45;;
7531;SDS011;3807;49.030;8.714;2022-08-18T14:18:49;6.70;;;5.40;;
7531;SDS011;3807;49.030;8.714;2022-08-18T14:21:34;5.40;;;4.90;;
7531;SDS011;3807;49.030;8.714;2022-08-18T14:24:27;6.43;;;5.80;;
7531;SDS011;3807;49.030;8.714;2022-08-18T14:27:12;5.57;;;5.07;;
7531;SDS011;3807;49.030;8.714;2022-08-18T14:29:37;7.18;;;5.65;;
7531;SDS011;3807;49.030;8.714;2022-08-18T14:32:03;6.68;;;5.28;;
7531;SDS011;3807;49.030;8.714;2022-08-18T14:34:30;8.05;;;5.40;;
7531;SDS011;3807;49.030;8.714;2022-08-18T14:36:55;6.40;;;5.80;;
7531;SDS011;3807;49.030;8.714;2022-08-18T14:39:21;6.32;;;5.72;;
7531;SDS011;3807;49.030;8.714;2022-08-18T14:41:46;6.65;;;6.03;;
7531;SDS011;3807;49.030;8.714;2022-08-18T14:44:11;7.78;;;6.00;;
7531;SDS011;3807;49.030;8.714;2022-08-18T14:46:37;6.07;;;5.47;;
7531;SDS011;3807;49.030;8.714;2022-08-18T14:49:03;6.20;;;5.60;;
7531;SDS011;3807;49.030;8.714;2022-08-18T14:51:28;5.97;;;5.37;;
7531;SDS011;3807;49.030;8.714;2022-08-18T14:53:54;8.63;;;5.43;;
7531;SDS011;3807;49.030;8.714;2022-08-18T14:56:19;10.60;;;5.40;;
7531;SDS011;3807;49.030;8.714;2022-08-18T14:58:44;7.10;;;5.47;;
7531;SDS011;3807;49.030;8.714;2022-08-18T15:01:10;5.80;;;5.28;;
7531;SDS011;3807;49.030;8.714;2022-08-18T15:03:37;12.75;;;5.60;;
7531;SDS011;3807;49.030;8.714;2022-08-18T15:06:04;6.50;;;5.20;;
7531;SDS011;3807;49.030;8.714;2022-08-18T15:08:32;5.82;;;5.20;;
7531;SDS011;3807;49.030;8.714;2022-08-18T15:10:59;6.53;;;5.28;;
7531;SDS011;3807;49.030;8.714;2022-08-18T15:13:24;7.35;;;5.22;;
7531;SDS011;3807;49.030;8.714;2022-08-18T15:15:50;6.37;;;5.50;;
7531;SDS011;3807;49.030;8.714;2022-08-18T15:18:16;6.60;;;5.18;;
7531;SDS011;3807;49.030;8.714;2022-08-18T15:20:43;5.55;;;5.05;;
7531;SDS011;3807;49.030;8.714;2022-08-18T15:23:27;6.25;;;5.37;;
7531;SDS011;3807;49.030;8.714;2022-08-18T15:26:11;7.20;;;5.68;;
7531;SDS011;3807;49.030;8.714;2022-08-18T15:28:37;6.65;;;5.85;;
7531;SDS011;3807;49.030;8.714;2022-08-18T15:31:03;5.87;;;4.90;;
7531;SDS011;3807;49.030;8.714;2022-08-18T15:33:29;5.10;;;4.70;;
7531;SDS011;3807;49.030;8.714;2022-08-18T15:35:55;5.87;;;4.60;;
7531;SDS011;3807;49.030;8.714;2022-08-18T15:38:21;5.55;;;4.80;;
7531;SDS011;3807;49.030;8.714;2022-08-18T15:40:55;7.28;;;4.97;;
7531;SDS011;3807;49.030;8.714;2022-08-18T15:43:22;5.30;;;4.80;;
7531;SDS011;3807;49.030;8.714;2022-08-18T15:45:49;5.40;;;4.15;;
7531;SDS011;3807;49.030;8.714;2022-08-18T15:48:16;6.05;;;4.80;;
7531;SDS011;3807;49.030;8.714;2022-08-18T15:50:43;6.20;;;4.75;;
7531;SDS011;3807;49.030;8.714;2022-08-18T15:53:12;6.68;;;5.10;;
7531;SDS011;3807;49.030;8.714;2022-08-18T15:55:39;4.90;;;4.50;;
7531;SDS011;3807;49.030;8.714;2022-08-18T15:58:05;5.00;;;4.47;;
7531;SDS011;3807;49.030;8.714;2022-08-18T16:00:32;5.07;;;4.57;;
7531;SDS011;3807;49.030;8.714;2022-08-18T16:02:59;5.12;;;4.72;;
7531;SDS011;3807;49.030;8.714;2022-08-18T16:05:28;6.80;;;5.55;;
7531;SDS011;3807;49.030;8.714;2022-08-18T16:07:55;5.78;;;5.25;;
7531;SDS011;3807;49.030;8.714;2022-08-18T16:10:24;9.77;;;6.10;;
7531;SDS011;3807;49.030;8.714;2022-08-18T16:12:50;7.75;;;6.07;;
7531;SDS011;3807;49.030;8.714;2022-08-18T16:15:17;7.30;;;6.50;;
7531;SDS011;3807;49.030;8.714;2022-08-18T16:17:43;7.20;;;6.53;;
7531;SDS011;3807;49.030;8.714;2022-08-18T16:20:10;7.35;;;6.53;;
7531;SDS011;3807;49.030;8.714;2022-08-18T16:22:36;8.32;;;7.45;;
7531;SDS011;3807;49.030;8.714;2022-08-18T16:25:05;8.82;;;7.93;;
7531;SDS011;3807;49.030;8.714;2022-08-18T16:27:33;11.93;;;8.73;;
7531;SDS011;3807;49.030;8.714;2022-08-18T16:29:59;12.05;;;10.75;;
7531;SDS011;3807;49.030;8.714;2022-08-18T16:32:28;14.40;;;11.00;;
7531;SDS011;3807;49.030;8.714;2022-08-18T16:34:54;13.68;;;12.07;;
7531;SDS011;3807;49.030;8.714;2022-08-18T16:37:19;15.65;;;12.45;;
7531;SDS011;3807;49.030;8.714;2022-08-18T16:39:45;12.63;;;11.43;;
7531;SDS011;3807;49.030;8.714;2022-08-18T16:42:10;16.05;;;11.90;;
7531;SDS011;3807;49.030;8.714;2022-08-18T16:44:36;13.35;;;12.02;;
7531;SDS011;3807;49.030;8.714;2022-08-18T16:47:05;14.02;;;12.07;;
7531;SDS011;3807;49.030;8.714;2022-08-18T16:49:31;15.57;;;11.68;;
7531;SDS011;3807;49.030;8.714;2022-08-18T16:51:59;13.38;;;11.40;;
7531;SDS011;3807;49.030;8.714;2022-08-18T16:54:26;11.48;;;10.38;;
7531;SDS011;3807;49.030;8.714;2022-08-18T16:56:52;12.95;;;11.52;;
7531;SDS011;3807;49.030;8.714;2022-08-18T16:59:18;11.52;;;10.40;;
7531;SDS011;3807;49.030;8.714;2022-08-18T17:02:02;13.10;;;11.40;;
7531;SDS011;3807;49.030;8.714;2022-08-18T17:04:46;11.68;;;9.63;;
7531;SDS011;3807;49.030;8.714;2022-08-18T17:07:11;15.65;;;10.88;;
7531;SDS011;3807;49.030;8.714;2022-08-18T17:09:36;11.57;;;9.65;;
7531;SDS011;3807;49.030;8.714;2022-08-18T17:12:02;12.18;;;9.27;;
7531;SDS011;3807;49.030;8.714;2022-08-18T17:14:29;12.05;;;9.48;;
7531;SDS011;3807;49.030;8.714;2022-08-18T17:16:55;10.20;;;9.20;;
7531;SDS011;3807;49.030;8.714;2022-08-18T17:19:23;9.85;;;8.07;;
7531;SDS011;3807;49.030;8.714;2022-08-18T17:21:50;9.70;;;8.50;;
7531;SDS011;3807;49.030;8.714;2022-08-18T17:24:17;8.82;;;7.65;;
7531;SDS011;3807;49.030;8.714;2022-08-18T17:29:21;7.72;;;6.93;;
7531;SDS011;3807;49.030;8.714;2022-08-18T17:31:53;8.35;;;7.22;;
7531;SDS011;3807;49.030;8.714;2022-08-18T17:34:34;9.25;;;7.18;;
7531;SDS011;3807;49.030;8.714;2022-08-18T17:37:01;7.90;;;7.10;;
7531;SDS011;3807;49.030;8.714;2022-08-18T17:39:40;11.57;;;7.37;;
7531;SDS011;3807;49.030;8.714;2022-08-18T17:42:13;7.68;;;6.97;;
7531;SDS011;3807;49.030;8.714;2022-08-18T17:44:51;7.95;;;7.25;;
7531;SDS011;3807;49.030;8.714;2022-08-18T17:47:57;9.35;;;7.40;;
7531;SDS011;3807;49.030;8.714;2022-08-18T17:50:39;7.65;;;6.93;;
7531;SDS011;3807;49.030;8.714;2022-08-18T17:53:29;7.55;;;6.85;;
7531;SDS011;3807;49.030;8.714;2022-08-18T17:56:06;7.68;;;6.68;;
7531;SDS011;3807;49.030;8.714;2022-08-18T17:58:38;7.12;;;6.35;;
7531;SDS011;3807;49.030;8.714;2022-08-18T18:01:10;7.95;;;7.15;;
7531;SDS011;3807;49.030;8.714;2022-08-18T18:03:36;7.45;;;6.72;;
7531;SDS011;3807;49.030;8.714;2022-08-18T18:08:54;9.32;;;6.40;;
7531;SDS011;3807;49.030;8.714;2022-08-18T18:11:30;12.63;;;6.75;;
7531;SDS011;3807;49.030;8.714;2022-08-18T18:17:35;10.25;;;6.65;;
7531;SDS011;3807;49.030;8.714;2022-08-18T18:19:43;7.70;;;6.45;;
7531;SDS011;3807;49.030;8.714;2022-08-18T18:24:59;8.43;;;6.85;;
7531;SDS011;3807;49.030;8.714;2022-08-18T18:32:36;8.93;;;7.68;;
7531;SDS011;3807;49.030;8.714;2022-08-18T18:35:27;8.07;;;6.68;;
7531;SDS011;3807;49.030;8.714;2022-08-18T18:38:47;8.82;;;6.93;;
7531;SDS011;3807;49.030;8.714;2022-08-18T18:43:41;8.02;;;7.12;;
7531;SDS011;3807;49.030;8.714;2022-08-18T18:48:52;8.77;;;7.78;;
7531;SDS011;3807;49.030;8.714;2022-08-18T18:54:10;8.18;;;7.30;;
7531;SDS011;3807;49.030;8.714;2022-08-18T18:56:39;8.02;;;7.22;;